Time;durP1;ratioP1;P1;durP2;ratioP2;P2;SDS_P1;SDS_P2;PMS_P1;PMS_P2;Temp;Humidity;BMP_temperature;BMP_pressure;BME280_temperature;BME280_humidity;BME280_pressure;Samples;Min_cycle;Max_cycle;Signal;HPM_P1;HPM_P2
2024/01/08 00:01:14;;;;;;;2.63;1.40;;;1.20;99.90;;;;;;5017977;28;20033;-62
2024/01/08 00:03:40;;;;;;;1.50;0.90;;;1.30;99.90;;;;;;5017171;28;20049;-62
2024/01/08 00:06:09;;;;;;;3.60;1.65;;;1.40;99.90;;;;;;5018026;28;20025;-62
2024/01/08 00:08:34;;;;;;;1.77;1.00;;;1.30;99.90;;;;;;5017845;28;20058;-62
2024/01/08 00:11:00;;;;;;;2.10;1.10;;;1.20;99.90;;;;;;5018200;28;20022;-62
2024/01/08 00:13:25;;;;;;;2.42;1.33;;;1.40;99.90;;;;;;5017822;28;20041;-62
2024/01/08 00:15:51;;;;;;;2.05;0.98;;;1.40;99.90;;;;;;5016874;28;20022;-62
2024/01/08 00:18:16;;;;;;;2.78;1.42;;;1.50;99.90;;;;;;5017259;28;20045;-62
2024/01/08 00:20:42;;;;;;;2.10;1.13;;;1.40;99.90;;;;;;5016408;28;20055;-62
2024/01/08 00:23:08;;;;;;;1.70;1.23;;;1.50;99.90;;;;;;5017761;28;20101;-62
2024/01/08 00:25:34;;;;;;;1.55;1.00;;;1.60;99.90;;;;;;5017940;28;20026;-62
2024/01/08 00:28:00;;;;;;;3.65;1.20;;;1.50;99.90;;;;;;5017966;28;20036;-62
2024/01/08 00:30:26;;;;;;;1.55;0.80;;;1.50;99.90;;;;;;5017102;28;20022;-62
2024/01/08 00:32:52;;;;;;;1.15;0.98;;;1.60;99.90;;;;;;5017082;28;20060;-62
2024/01/08 00:35:17;;;;;;;1.17;0.75;;;1.40;99.90;;;;;;5016932;28;20026;-62
2024/01/08 00:37:43;;;;;;;3.22;1.63;;;1.50;99.90;;;;;;5017622;28;20026;-62
2024/01/08 00:40:09;;;;;;;1.88;1.23;;;1.60;99.90;;;;;;5016738;28;20048;-62
2024/01/08 00:42:36;;;;;;;1.45;1.17;;;1.30;99.90;;;;;;5017525;28;20083;-62
2024/01/08 00:45:02;;;;;;;1.73;1.27;;;1.30;99.90;;;;;;5017173;28;20099;-62
2024/01/08 00:47:28;;;;;;;2.42;0.88;;;1.40;99.90;;;;;;5016566;28;20034;-62
2024/01/08 00:49:54;;;;;;;1.75;1.10;;;1.50;99.90;;;;;;5017038;28;20030;-62
2024/01/08 00:52:20;;;;;;;7.97;1.55;;;1.60;99.90;;;;;;5016623;28;20033;-63
2024/01/08 00:54:45;;;;;;;2.85;1.48;;;1.50;99.90;;;;;;5016646;28;20076;-62
2024/01/08 00:57:11;;;;;;;2.78;0.93;;;1.40;99.90;;;;;;5016171;28;20038;-62
2024/01/08 00:59:37;;;;;;;2.50;1.10;;;1.40;99.90;;;;;;5016891;28;20022;-62
2024/01/08 01:02:03;;;;;;;2.55;1.08;;;1.40;99.90;;;;;;5017383;28;20029;-62
2024/01/08 01:04:29;;;;;;;2.67;1.23;;;1.40;99.90;;;;;;5016362;28;20108;-62
2024/01/08 01:06:54;;;;;;;2.13;1.20;;;1.50;99.90;;;;;;5016356;28;20025;-63
2024/01/08 01:09:20;;;;;;;2.80;0.98;;;1.40;99.90;;;;;;5016376;28;20089;-62
2024/01/08 01:11:45;;;;;;;1.20;1.00;;;1.40;99.90;;;;;;5016984;28;20033;-62
2024/01/08 01:14:11;;;;;;;1.05;0.90;;;1.50;99.90;;;;;;5016191;28;20026;-62
2024/01/08 01:16:36;;;;;;;2.10;0.90;;;1.40;99.90;;;;;;5016163;28;20018;-62
2024/01/08 01:19:02;;;;;;;3.20;1.08;;;1.40;99.90;;;;;;5017030;28;20104;-62
2024/01/08 01:21:28;;;;;;;2.03;1.05;;;1.40;99.90;;;;;;5016194;28;20033;-62
2024/01/08 01:23:54;;;;;;;3.20;1.30;;;1.40;99.90;;;;;;5016719;28;20029;-62
2024/01/08 01:26:20;;;;;;;2.05;0.95;;;1.40;99.90;;;;;;5016200;28;20026;-62
2024/01/08 01:28:46;;;;;;;7.47;1.63;;;1.30;99.90;;;;;;5016153;28;20110;-62
2024/01/08 01:31:12;;;;;;;2.58;1.52;;;1.30;99.90;;;;;;5016909;28;20045;-62
2024/01/08 01:33:38;;;;;;;3.30;1.48;;;1.10;99.90;;;;;;5018064;28;20109;-62
2024/01/08 01:36:05;;;;;;;3.55;1.30;;;1.20;99.90;;;;;;5019993;28;20026;-62
2024/01/08 01:38:31;;;;;;;3.55;1.77;;;1.20;99.90;;;;;;5020057;28;20032;-62
2024/01/08 01:40:57;;;;;;;2.05;1.08;;;1.30;99.90;;;;;;5019902;28;20018;-62
2024/01/08 01:43:25;;;;;;;3.65;1.65;;;1.00;99.90;;;;;;5020531;28;20029;-62
2024/01/08 01:45:54;;;;;;;2.28;1.00;;;1.00;99.90;;;;;;5019810;28;20026;-62
2024/01/08 01:48:20;;;;;;;3.17;1.30;;;1.20;99.90;;;;;;5020560;28;20022;-62
2024/01/08 01:50:46;;;;;;;3.47;1.38;;;1.20;99.90;;;;;;5019668;28;20029;-62
2024/01/08 01:53:13;;;;;;;2.22;1.20;;;1.20;99.90;;;;;;5020605;28;20026;-62
2024/01/08 01:55:39;;;;;;;4.07;1.30;;;1.20;99.90;;;;;;5019592;28;20025;-62
2024/01/08 01:58:06;;;;;;;2.58;1.30;;;1.30;99.90;;;;;;5019399;28;20022;-62
2024/01/08 02:00:32;;;;;;;3.67;1.50;;;1.20;99.90;;;;;;5019534;28;20053;-62
2024/01/08 02:02:58;;;;;;;1.88;1.33;;;1.00;99.90;;;;;;5019298;28;20026;-62
2024/01/08 02:05:24;;;;;;;5.50;1.65;;;0.70;99.90;;;;;;5020227;28;20049;-62
2024/01/08 02:07:52;;;;;;;2.08;1.50;;;0.90;99.90;;;;;;5020188;28;20030;-62
2024/01/08 02:10:18;;;;;;;3.53;1.45;;;1.10;99.90;;;;;;5019844;28;20022;-62
2024/01/08 02:12:43;;;;;;;2.83;1.40;;;1.00;99.90;;;;;;5019455;28;20033;-62
2024/01/08 02:15:09;;;;;;;2.28;1.63;;;1.10;99.90;;;;;;5019430;28;20022;-62
2024/01/08 02:17:34;;;;;;;3.13;1.40;;;1.10;99.90;;;;;;5019185;28;20061;-62
2024/01/08 02:20:00;;;;;;;5.25;1.98;;;1.10;99.90;;;;;;5019138;28;20030;-62
2024/01/08 02:22:25;;;;;;;2.42;1.50;;;1.30;99.90;;;;;;5019637;28;20033;-62
2024/01/08 02:24:51;;;;;;;3.40;1.80;;;1.00;99.90;;;;;;5018980;28;20026;-62
2024/01/08 02:27:17;;;;;;;2.08;1.45;;;1.00;99.90;;;;;;5019073;28;20048;-62
2024/01/08 02:29:42;;;;;;;4.25;1.88;;;1.20;99.90;;;;;;5019158;28;20128;-62
2024/01/08 02:32:10;;;;;;;2.65;1.42;;;1.00;99.90;;;;;;5018841;28;20030;-62
2024/01/08 02:34:36;;;;;;;2.85;1.40;;;1.10;99.90;;;;;;5019950;28;20100;-62
2024/01/08 02:37:01;;;;;;;2.80;1.77;;;1.20;99.90;;;;;;5018617;28;20017;-62
2024/01/08 02:39:27;;;;;;;3.63;1.60;;;1.10;99.90;;;;;;5019237;28;20018;-62
2024/01/08 02:41:52;;;;;;;2.30;1.70;;;1.10;99.90;;;;;;5018667;28;20053;-62
2024/01/08 02:44:18;;;;;;;3.08;1.70;;;1.10;99.90;;;;;;5018081;28;20034;-62
2024/01/08 02:46:43;;;;;;;2.38;2.05;;;1.10;99.90;;;;;;5018627;28;20033;-62
2024/01/08 02:49:09;;;;;;;2.53;1.67;;;0.80;99.90;;;;;;5019149;28;20026;-62
2024/01/08 02:51:34;;;;;;;3.13;1.80;;;1.00;99.90;;;;;;5018435;28;20089;-62
2024/01/08 02:54:00;;;;;;;3.53;2.03;;;1.20;99.90;;;;;;5019344;28;20021;-62
2024/01/08 02:56:26;;;;;;;4.53;1.67;;;1.20;99.90;;;;;;5018520;28;20052;-62
2024/01/08 02:58:51;;;;;;;3.50;2.05;;;1.20;99.90;;;;;;5018347;28;20026;-62
2024/01/08 03:01:17;;;;;;;3.65;1.95;;;1.30;99.90;;;;;;5018551;28;20021;-62
2024/01/08 03:03:43;;;;;;;3.78;1.80;;;1.20;99.90;;;;;;5018331;28;20022;-62
2024/01/08 03:06:08;;;;;;;3.10;1.80;;;1.20;99.90;;;;;;5018315;28;20030;-62
2024/01/08 03:08:34;;;;;;;2.55;1.63;;;0.90;99.90;;;;;;5019116;28;20026;-62
2024/01/08 03:10:59;;;;;;;3.95;2.10;;;0.90;99.90;;;;;;5019180;28;20034;-62
2024/01/08 03:13:25;;;;;;;3.33;1.80;;;0.70;99.90;;;;;;5018057;28;20036;-62
2024/01/08 03:15:50;;;;;;;3.53;1.75;;;0.80;99.90;;;;;;5018967;28;20026;-62
2024/01/08 03:18:16;;;;;;;3.45;2.17;;;0.90;99.90;;;;;;5017842;28;20034;-62
2024/01/08 03:20:41;;;;;;;6.10;2.10;;;1.00;99.90;;;;;;5017893;28;20026;-62
2024/01/08 03:23:09;;;;;;;3.28;1.63;;;1.10;99.90;;;;;;5017841;28;20032;-63
2024/01/08 03:25:35;;;;;;;5.13;2.05;;;1.00;99.90;;;;;;5017902;28;20087;-62
2024/01/08 03:28:00;;;;;;;3.30;2.08;;;1.10;99.90;;;;;;5017773;28;20025;-62
2024/01/08 03:30:26;;;;;;;3.42;1.80;;;0.90;99.90;;;;;;5017859;28;20081;-62
2024/01/08 03:32:52;;;;;;;2.53;1.65;;;1.00;99.90;;;;;;5017691;28;20034;-62
2024/01/08 03:35:18;;;;;;;2.25;1.70;;;1.00;99.90;;;;;;5017723;28;20105;-62
2024/01/08 03:37:44;;;;;;;2.08;1.52;;;1.10;99.90;;;;;;5018598;28;20033;-62
2024/01/08 03:40:10;;;;;;;2.75;1.80;;;1.00;99.90;;;;;;5018549;28;20022;-62
2024/01/08 03:42:35;;;;;;;4.35;2.25;;;1.10;99.90;;;;;;5018409;28;20036;-62
2024/01/08 03:45:01;;;;;;;4.45;1.90;;;0.90;99.90;;;;;;5018408;28;20022;-62
2024/01/08 03:47:26;;;;;;;5.32;2.05;;;1.10;99.90;;;;;;5017816;28;20112;-62
2024/01/08 03:49:54;;;;;;;2.72;1.55;;;1.20;99.90;;;;;;5018465;28;20057;-63
2024/01/08 03:52:20;;;;;;;5.40;2.22;;;1.10;99.90;;;;;;5017210;28;20033;-62
2024/01/08 03:54:46;;;;;;;2.97;1.73;;;1.20;99.90;;;;;;5017459;28;20042;-62
2024/01/08 03:57:12;;;;;;;3.90;2.58;;;1.10;99.90;;;;;;5017736;28;20101;-62
2024/01/08 03:59:37;;;;;;;4.47;1.65;;;0.70;99.90;;;;;;5017820;28;20025;-62
2024/01/08 04:02:03;;;;;;;4.10;1.98;;;0.80;99.90;;;;;;5017550;28;20026;-62
2024/01/08 04:04:29;;;;;;;4.72;2.10;;;0.90;99.90;;;;;;5018088;28;20029;-62
2024/01/08 04:06:54;;;;;;;2.83;1.73;;;1.00;99.90;;;;;;5017841;28;20022;-62
2024/01/08 04:09:20;;;;;;;3.28;1.65;;;1.10;99.90;;;;;;5017174;28;20064;-62
2024/01/08 04:11:46;;;;;;;4.13;2.25;;;1.20;99.90;;;;;;5017789;28;20061;-62
2024/01/08 04:14:12;;;;;;;3.67;2.28;;;1.00;99.90;;;;;;5017950;28;20037;-62
2024/01/08 04:16:38;;;;;;;2.50;1.90;;;1.20;99.90;;;;;;5017900;28;20052;-63
2024/01/08 04:19:04;;;;;;;5.82;2.40;;;1.20;99.90;;;;;;5016927;28;20022;-62
2024/01/08 04:21:29;;;;;;;4.30;2.20;;;1.20;99.90;;;;;;5017073;28;20022;-62
2024/01/08 04:23:55;;;;;;;3.17;1.65;;;1.00;99.90;;;;;;5017421;28;20112;-62
2024/01/08 04:26:20;;;;;;;4.53;2.28;;;0.90;99.90;;;;;;5018346;28;20030;-62
2024/01/08 04:28:47;;;;;;;4.32;2.65;;;0.90;99.90;;;;;;5017323;28;20093;-62
2024/01/08 04:31:22;;;;;;;3.10;1.95;;;0.90;99.90;;;;;;5016657;28;20026;-62
2024/01/08 04:33:48;;;;;;;5.22;2.17;;;1.00;99.90;;;;;;5016593;28;20114;-62
2024/01/08 04:36:14;;;;;;;4.53;2.08;;;1.10;99.90;;;;;;5017100;28;20072;-62
2024/01/08 04:38:40;;;;;;;4.63;2.08;;;1.20;99.90;;;;;;5016546;28;20026;-62
2024/01/08 04:41:06;;;;;;;4.53;2.25;;;1.20;99.90;;;;;;5017789;28;20026;-62
2024/01/08 04:43:31;;;;;;;2.78;1.80;;;1.10;99.90;;;;;;5016992;28;20030;-62
2024/01/08 04:45:57;;;;;;;4.38;2.22;;;1.20;99.90;;;;;;5016514;28;20030;-62
2024/01/08 04:48:22;;;;;;;4.72;2.28;;;0.90;99.90;;;;;;5016445;28;20077;-62
2024/01/08 04:50:48;;;;;;;3.63;2.03;;;1.10;99.90;;;;;;5017369;28;20026;-62
2024/01/08 04:53:13;;;;;;;4.30;2.30;;;1.10;99.90;;;;;;5016575;28;20029;-62
2024/01/08 04:55:39;;;;;;;3.50;2.15;;;1.00;99.90;;;;;;5016536;28;20033;-62
2024/01/08 04:58:08;;;;;;;4.20;1.90;;;1.00;99.90;;;;;;5016358;28;20018;-62
2024/01/08 05:00:34;;;;;;;8.20;2.35;;;1.10;99.90;;;;;;5016523;28;20022;-62
2024/01/08 05:02:59;;;;;;;3.42;1.83;;;1.00;99.90;;;;;;5016439;28;20026;-62
2024/01/08 05:05:25;;;;;;;3.33;1.98;;;1.10;99.90;;;;;;5016442;28;20026;-62
2024/01/08 05:07:50;;;;;;;3.38;2.13;;;1.00;99.90;;;;;;5018872;28;20029;-62
2024/01/08 05:10:16;;;;;;;7.40;2.25;;;1.10;99.90;;;;;;5021487;28;20025;-62
2024/01/08 05:12:41;;;;;;;4.10;1.60;;;1.00;99.90;;;;;;5020799;28;20041;-62
2024/01/08 05:15:08;;;;;;;4.13;2.17;;;0.80;99.90;;;;;;5020472;28;20200;-62
2024/01/08 05:17:33;;;;;;;2.35;1.83;;;0.80;99.90;;;;;;5020589;28;20052;-62
2024/01/08 05:19:59;;;;;;;4.57;1.92;;;1.00;99.90;;;;;;5021363;28;20026;-62
2024/01/08 05:22:24;;;;;;;3.60;2.03;;;1.00;99.90;;;;;;5020432;28;20121;-62
2024/01/08 05:24:50;;;;;;;4.95;1.92;;;1.00;99.90;;;;;;5020399;28;20029;-62
2024/01/08 05:27:15;;;;;;;3.63;2.05;;;0.90;99.90;;;;;;5020179;28;20022;-62
2024/01/08 05:29:41;;;;;;;3.40;1.60;;;0.70;99.90;;;;;;5020315;28;20117;-62
2024/01/08 05:32:07;;;;;;;5.88;1.60;;;0.70;99.90;;;;;;5020436;28;20052;-62
2024/01/08 05:34:32;;;;;;;3.05;1.90;;;0.70;99.90;;;;;;5020759;28;20029;-62
2024/01/08 05:36:58;;;;;;;4.68;2.25;;;0.70;99.90;;;;;;5020075;28;20133;-62
2024/01/08 05:39:24;;;;;;;3.78;1.83;;;0.90;99.90;;;;;;5020287;28;20049;-62
2024/01/08 05:41:49;;;;;;;3.25;1.83;;;0.80;99.90;;;;;;5020021;28;20026;-62
2024/01/08 05:44:15;;;;;;;3.38;2.05;;;0.90;99.90;;;;;;5019769;28;20121;-62
2024/01/08 05:46:44;;;;;;;4.55;2.30;;;0.80;99.90;;;;;;5019836;28;20018;-62
2024/01/08 05:49:10;;;;;;;4.93;2.38;;;0.70;99.90;;;;;;5019593;28;20105;-62
2024/01/08 05:51:36;;;;;;;4.40;2.30;;;0.60;99.90;;;;;;5019827;28;20030;-62
2024/01/08 05:54:02;;;;;;;3.28;2.03;;;0.90;99.90;;;;;;5019944;28;20026;-62
2024/01/08 05:56:28;;;;;;;6.03;1.85;;;1.10;99.90;;;;;;5019421;28;20018;-62
2024/01/08 05:58:54;;;;;;;3.88;2.00;;;1.00;99.90;;;;;;5019709;28;20156;-62
2024/01/08 06:01:20;;;;;;;3.70;1.80;;;1.00;99.90;;;;;;5019362;28;20022;-62
2024/01/08 06:03:45;;;;;;;2.40;2.05;;;0.80;99.90;;;;;;5020208;28;20061;-62
2024/01/08 06:06:12;;;;;;;4.95;2.40;;;0.70;99.90;;;;;;5019723;28;20084;-62
2024/01/08 06:08:40;;;;;;;4.30;2.83;;;0.60;99.90;;;;;;5019546;28;20072;-62
2024/01/08 06:11:06;;;;;;;3.70;1.92;;;0.60;99.90;;;;;;5019619;28;20030;-62
2024/01/08 06:13:32;;;;;;;6.45;2.03;;;0.60;99.90;;;;;;5019208;28;20046;-62
2024/01/08 06:15:57;;;;;;;4.90;1.83;;;0.70;99.90;;;;;;5019155;28;20185;-62
2024/01/08 06:18:24;;;;;;;4.15;2.15;;;0.60;99.90;;;;;;5018241;28;20042;-62
2024/01/08 06:20:49;;;;;;;4.93;2.53;;;0.60;99.90;;;;;;5019272;28;20112;-62
2024/01/08 06:23:15;;;;;;;4.45;2.33;;;0.60;99.90;;;;;;5019390;28;20041;-62
2024/01/08 06:25:41;;;;;;;5.25;2.35;;;0.80;99.90;;;;;;5019071;28;20026;-62
2024/01/08 06:28:06;;;;;;;3.78;2.40;;;0.90;99.90;;;;;;5018742;28;20061;-62
2024/01/08 06:30:32;;;;;;;4.95;2.53;;;0.90;99.90;;;;;;5019121;28;20030;-62
2024/01/08 06:32:57;;;;;;;5.40;1.88;;;1.00;99.90;;;;;;5019116;28;20026;-62
2024/01/08 06:35:23;;;;;;;4.03;2.05;;;0.70;99.90;;;;;;5018741;28;20029;-62
2024/01/08 06:37:49;;;;;;;3.03;2.13;;;0.60;99.90;;;;;;5019283;28;20116;-62
2024/01/08 06:40:15;;;;;;;6.32;2.30;;;0.60;99.90;;;;;;5019030;28;20069;-62
2024/01/08 06:42:40;;;;;;;8.48;2.55;;;0.80;99.90;;;;;;5018666;28;20026;-62
2024/01/08 06:45:06;;;;;;;5.15;2.25;;;0.40;99.90;;;;;;5019339;28;20022;-62
2024/01/08 06:47:32;;;;;;;4.18;1.73;;;0.40;99.90;;;;;;5019325;28;20065;-62
2024/01/08 06:49:57;;;;;;;4.25;2.03;;;0.40;99.90;;;;;;5019106;28;20124;-62
2024/01/08 06:52:24;;;;;;;2.95;1.90;;;0.40;99.90;;;;;;5018803;28;20022;-62
2024/01/08 06:54:49;;;;;;;3.95;2.22;;;0.50;99.90;;;;;;5018724;28;20032;-63
2024/01/08 06:57:15;;;;;;;5.75;1.92;;;0.50;99.90;;;;;;5018516;28;20022;-62
2024/01/08 06:59:40;;;;;;;2.50;1.83;;;0.60;99.90;;;;;;5018372;28;20121;-62
2024/01/08 07:02:06;;;;;;;4.20;2.20;;;0.30;99.90;;;;;;5018232;28;20022;-62
2024/01/08 07:04:32;;;;;;;4.57;1.80;;;0.40;99.90;;;;;;5018353;28;20057;-62
2024/01/08 07:06:57;;;;;;;3.67;1.75;;;0.40;99.90;;;;;;5018483;28;20064;-62
2024/01/08 07:09:23;;;;;;;5.53;2.40;;;0.60;99.90;;;;;;5018527;28;20063;-62
2024/01/08 07:11:49;;;;;;;3.67;1.67;;;0.50;99.90;;;;;;5018612;28;20168;-62
2024/01/08 07:14:14;;;;;;;3.92;2.20;;;0.50;99.90;;;;;;5018396;28;20041;-62
2024/01/08 07:16:40;;;;;;;4.70;1.92;;;0.50;99.90;;;;;;5018928;28;20018;-62
2024/01/08 07:19:06;;;;;;;4.55;1.88;;;0.50;99.90;;;;;;5017973;28;20026;-62
2024/01/08 07:21:31;;;;;;;5.38;1.98;;;0.50;99.90;;;;;;5019031;28;20018;-62
2024/01/08 07:23:57;;;;;;;6.25;2.15;;;0.60;99.90;;;;;;5018914;28;20022;-62
2024/01/08 07:26:23;;;;;;;5.47;2.22;;;0.40;99.90;;;;;;5017866;28;20061;-62
2024/01/08 07:28:49;;;;;;;5.43;2.00;;;0.50;99.90;;;;;;5018311;28;20045;-62
2024/01/08 07:31:17;;;;;;;4.15;2.30;;;0.40;99.90;;;;;;5018222;28;20037;-62
2024/01/08 07:33:43;;;;;;;3.47;1.80;;;0.10;99.90;;;;;;5017677;28;20117;-62
2024/01/08 07:36:09;;;;;;;3.70;1.75;;;-0.10;99.90;;;;;;5018592;28;20021;-62
2024/01/08 07:38:35;;;;;;;4.22;1.80;;;0.10;99.90;;;;;;5017471;28;20080;-62
2024/01/08 07:41:01;;;;;;;6.75;2.17;;;0.00;99.90;;;;;;5017629;28;20030;-62
2024/01/08 07:43:27;;;;;;;4.82;2.03;;;-0.10;99.90;;;;;;5018347;28;20022;-62
2024/01/08 07:45:53;;;;;;;3.47;1.60;;;0.00;99.90;;;;;;5018423;28;20034;-62
2024/01/08 07:48:19;;;;;;;4.65;1.77;;;0.10;99.90;;;;;;5017952;28;20065;-62
2024/01/08 07:50:45;;;;;;;4.10;1.52;;;0.20;99.90;;;;;;5018287;28;20030;-62
2024/01/08 07:53:11;;;;;;;4.97;2.05;;;0.30;99.90;;;;;;5017569;28;20033;-62
2024/01/08 07:55:37;;;;;;;4.30;2.00;;;0.20;99.90;;;;;;5017298;28;20022;-62
2024/01/08 07:58:03;;;;;;;4.82;1.98;;;0.00;99.90;;;;;;5017224;28;20025;-62
2024/01/08 08:00:28;;;;;;;4.65;1.30;;;0.00;99.90;;;;;;5018182;28;20014;-62
2024/01/08 08:02:54;;;;;;;4.20;2.28;;;0.00;99.90;;;;;;5018422;28;20036;-62
2024/01/08 08:05:20;;;;;;;4.43;2.03;;;0.10;99.90;;;;;;5018143;28;20026;-62
2024/01/08 08:07:45;;;;;;;3.88;1.80;;;0.20;99.90;;;;;;5017006;28;20061;-62
2024/01/08 08:10:11;;;;;;;4.10;2.20;;;0.10;99.90;;;;;;5017966;28;20068;-63
2024/01/08 08:12:37;;;;;;;3.03;1.88;;;0.10;99.90;;;;;;5016846;28;20034;-62
2024/01/08 08:15:03;;;;;;;7.05;2.67;;;0.30;99.90;;;;;;5017389;28;20029;-62
2024/01/08 08:17:30;;;;;;;2.72;1.70;;;0.30;99.90;;;;;;5016654;28;20045;-62
2024/01/08 08:19:56;;;;;;;4.65;1.75;;;0.30;99.90;;;;;;5017149;28;20053;-62
2024/01/08 08:22:22;;;;;;;6.45;2.10;;;0.30;99.90;;;;;;5016863;28;20053;-62
2024/01/08 08:24:48;;;;;;;3.20;1.70;;;0.20;99.90;;;;;;5016857;28;20026;-62
2024/01/08 08:27:14;;;;;;;3.30;1.85;;;0.20;99.90;;;;;;5016999;28;20083;-62
2024/01/08 08:29:47;;;;;;;3.28;1.63;;;0.10;99.90;;;;;;5016718;28;20049;-62
2024/01/08 08:32:13;;;;;;;3.60;1.58;;;0.30;99.90;;;;;;5016694;28;20034;-62
2024/01/08 08:34:39;;;;;;;4.05;1.77;;;0.40;99.90;;;;;;5017506;28;20033;-62
2024/01/08 08:37:07;;;;;;;2.80;1.65;;;0.50;99.90;;;;;;5016551;28;20026;-62
2024/01/08 08:39:33;;;;;;;5.30;2.13;;;0.30;99.90;;;;;;5017141;28;20022;-62
2024/01/08 08:41:58;;;;;;;3.75;1.95;;;0.10;99.90;;;;;;5016156;28;20026;-62
2024/01/08 08:44:24;;;;;;;3.38;1.77;;;0.10;99.90;;;;;;5016508;28;20022;-62
2024/01/08 08:46:50;;;;;;;5.20;1.75;;;0.30;99.90;;;;;;5016553;28;20034;-62
2024/01/08 08:49:16;;;;;;;4.50;2.30;;;0.50;99.90;;;;;;5016428;28;20018;-62
2024/01/08 08:51:42;;;;;;;5.03;2.17;;;0.30;99.90;;;;;;5016273;28;20026;-62
2024/01/08 08:54:08;;;;;;;5.75;2.25;;;0.20;99.90;;;;;;5016662;28;20018;-62
2024/01/08 08:56:34;;;;;;;3.92;1.95;;;0.10;99.90;;;;;;5016168;28;20022;-62
2024/01/08 08:59:00;;;;;;;6.35;2.45;;;0.20;99.90;;;;;;5016517;28;20077;-62
2024/01/08 09:01:26;;;;;;;5.00;2.22;;;0.20;99.90;;;;;;5016195;28;20113;-62
2024/01/08 09:03:52;;;;;;;4.80;2.25;;;0.30;99.90;;;;;;5016999;28;20036;-62
2024/01/08 09:06:20;;;;;;;4.28;1.92;;;0.40;99.90;;;;;;5017191;28;20030;-62
2024/01/08 09:08:47;;;;;;;4.63;2.50;;;0.50;99.90;;;;;;5016929;28;20069;-62
2024/01/08 09:11:12;;;;;;;5.03;2.30;;;0.60;99.90;;;;;;5016954;28;20033;-62
2024/01/08 09:13:38;;;;;;;3.28;2.30;;;0.70;99.90;;;;;;5016864;28;20032;-62
2024/01/08 09:16:03;;;;;;;4.82;2.08;;;0.70;99.90;;;;;;5016169;28;20069;-62
2024/01/08 09:18:29;;;;;;;6.70;2.55;;;0.60;99.90;;;;;;5017173;28;20033;-62
2024/01/08 09:20:55;;;;;;;8.15;1.95;;;0.50;99.90;;;;;;5017102;28;20026;-62
2024/01/08 09:23:21;;;;;;;7.47;2.55;;;0.60;99.90;;;;;;5040161;22;20038;-66
2024/01/08 09:25:47;;;;;;;4.15;2.08;;;0.70;99.90;;;;;;5016080;28;20177;-66
2024/01/08 09:28:13;;;;;;;4.43;2.00;;;0.80;99.90;;;;;;5017216;28;20053;-66
2024/01/08 09:30:38;;;;;;;6.20;2.17;;;0.90;99.90;;;;;;5016000;28;20029;-66
2024/01/08 09:33:04;;;;;;;4.88;2.17;;;0.70;99.90;;;;;;5032599;28;20022;-66
2024/01/08 09:35:29;;;;;;;3.92;2.13;;;0.70;99.90;;;;;;5017152;28;20018;-66
2024/01/08 09:37:55;;;;;;;4.93;2.13;;;0.50;99.90;;;;;;5016045;28;20097;-66
2024/01/08 09:40:21;;;;;;;5.10;2.58;;;0.50;99.90;;;;;;5016055;28;20054;-66
2024/01/08 09:42:50;;;;;;;4.13;1.85;;;0.70;99.90;;;;;;5016896;28;20053;-66
2024/01/08 09:45:22;;;;;;;4.50;2.10;;;0.80;99.90;;;;;;5017099;28;20029;-66
2024/01/08 09:47:48;;;;;;;4.70;2.30;;;0.80;99.90;;;;;;5016084;28;20037;-66
2024/01/08 09:50:15;;;;;;;4.82;2.13;;;0.90;99.90;;;;;;5016713;28;20038;-66
2024/01/08 09:52:43;;;;;;;3.63;1.65;;;0.90;99.90;;;;;;5016771;28;20022;-67
2024/01/08 09:55:12;;;;;;;4.70;2.08;;;1.10;99.90;;;;;;5018587;28;20087;-66
2024/01/08 09:57:38;;;;;;;20.40;2.22;;;1.00;99.90;;;;;;5020562;28;20080;-66
2024/01/08 10:00:05;;;;;;;3.05;2.00;;;1.10;99.90;;;;;;5019715;28;20051;-66
2024/01/08 10:02:31;;;;;;;4.60;2.10;;;1.10;99.90;;;;;;5019391;28;20026;-66
2024/01/08 10:04:57;;;;;;;5.72;2.03;;;1.20;99.90;;;;;;5019441;28;20024;-66
2024/01/08 10:07:24;;;;;;;3.92;1.75;;;0.90;99.90;;;;;;5019432;28;20029;-66
2024/01/08 10:09:50;;;;;;;3.90;2.00;;;0.90;99.90;;;;;;5020142;28;20030;-66
2024/01/08 10:12:17;;;;;;;3.13;1.88;;;0.80;99.90;;;;;;5020416;28;20050;-66
2024/01/08 10:14:43;;;;;;;3.88;1.75;;;0.70;99.90;;;;;;5020205;28;20017;-66
2024/01/08 10:17:08;;;;;;;3.67;1.75;;;0.80;99.90;;;;;;5019192;28;20022;-66
2024/01/08 10:19:34;;;;;;;4.03;2.05;;;1.00;99.90;;;;;;5019462;28;20065;-66
2024/01/08 10:22:06;;;;;;;2.85;1.50;;;1.10;99.90;;;;;;5020359;28;20026;-66
2024/01/08 10:24:31;;;;;;;3.90;1.80;;;1.00;99.90;;;;;;5035853;28;20037;-66
2024/01/08 10:26:57;;;;;;;4.68;2.38;;;0.90;99.90;;;;;;5019111;28;20026;-67
2024/01/08 10:29:24;;;;;;;3.92;1.90;;;1.20;99.90;;;;;;5019829;28;20022;-67
2024/01/08 10:31:50;;;;;;;2.85;2.15;;;1.30;99.90;;;;;;5019881;28;20014;-66
2024/01/08 10:34:16;;;;;;;4.47;2.25;;;1.50;99.90;;;;;;5019725;28;20030;-66
2024/01/08 10:36:43;;;;;;;6.30;2.65;;;1.50;99.90;;;;;;5018872;28;20022;-66
2024/01/08 10:39:09;;;;;;;6.80;2.22;;;1.60;99.90;;;;;;5019751;28;20018;-66
2024/01/08 10:41:36;;;;;;;5.70;2.17;;;1.40;99.90;;;;;;5019655;28;20033;-66
2024/01/08 10:44:01;;;;;;;4.03;2.25;;;1.50;99.90;;;;;;5019639;28;20113;-66
2024/01/08 10:46:33;;;;;;;4.47;2.40;;;1.60;99.90;;;;;;5019592;28;20054;-66
2024/01/08 10:49:01;;;;;;;5.28;1.85;;;1.50;99.90;;;;;;5018736;28;20064;-66
2024/01/08 10:51:27;;;;;;;6.03;2.25;;;1.40;99.90;;;;;;5018659;28;20057;-66
2024/01/08 10:53:55;;;;;;;5.70;2.15;;;1.30;99.90;;;;;;5034666;28;20057;-66
2024/01/08 10:56:27;;;;;;;4.93;1.95;;;1.50;99.90;;;;;;5019382;28;20029;-65
2024/01/08 10:59:01;;;;;;;4.47;2.40;;;1.40;99.90;;;;;;5018582;28;20030;-66
2024/01/08 11:01:29;;;;;;;6.18;2.42;;;1.50;99.90;;;;;;5019833;28;20022;-66
2024/01/08 11:03:56;;;;;;;6.90;2.35;;;1.50;99.90;;;;;;5019279;28;20029;-65
2024/01/08 11:06:22;;;;;;;4.00;2.20;;;1.80;99.90;;;;;;5018815;28;20030;-66
2024/01/08 11:08:49;;;;;;;7.82;2.88;;;1.90;99.90;;;;;;5018233;28;20026;-66
2024/01/08 11:11:17;;;;;;;4.75;2.20;;;1.70;99.90;;;;;;5019135;28;20037;-66
2024/01/08 11:13:44;;;;;;;7.20;2.70;;;1.70;99.80;;;;;;5018802;28;20018;-66
2024/01/08 11:16:12;;;;;;;4.15;2.22;;;1.50;99.20;;;;;;5019226;28;20080;-66
2024/01/08 11:18:38;;;;;;;5.13;2.38;;;1.60;99.90;;;;;;5019000;28;20037;-66
2024/01/08 11:21:05;;;;;;;7.60;3.15;;;1.80;99.90;;;;;;5019005;28;20018;-66
2024/01/08 11:23:38;;;;;;;3.75;2.08;;;1.60;99.90;;;;;;5017858;28;20062;-66
2024/01/08 11:26:14;;;;;;;5.88;2.80;;;1.70;99.90;;;;;;5019057;28;20017;-66
2024/01/08 11:28:41;;;;;;;4.35;2.45;;;1.50;97.90;;;;;;5019012;28;20029;-65
2024/01/08 11:31:32;;;;;;;5.68;2.53;;;1.30;99.30;;;;;;5017910;28;20122;-66
2024/01/08 11:34:25;;;;;;;5.65;2.85;;;1.70;99.40;;;;;;5018389;28;20030;-66
2024/01/08 11:37:09;;;;;;;5.63;2.67;;;1.30;98.40;;;;;;5034774;28;20026;-66
2024/01/08 11:39:40;;;;;;;5.68;2.42;;;1.70;99.50;;;;;;5018441;28;20022;-66
2024/01/08 11:42:07;;;;;;;6.53;2.22;;;1.60;97.60;;;;;;5018549;28;20042;-66
2024/01/08 11:44:33;;;;;;;5.95;2.47;;;1.60;99.30;;;;;;5018381;28;20029;-65
2024/01/08 11:46:59;;;;;;;7.70;3.00;;;1.70;98.80;;;;;;5017582;28;20033;-66
2024/01/08 11:49:24;;;;;;;8.40;2.72;;;1.90;99.60;;;;;;5017809;28;20064;-66
2024/01/08 11:51:55;;;;;;;6.35;2.85;;;2.10;98.90;;;;;;5017374;28;20054;-66
2024/01/08 11:54:21;;;;;;;9.85;3.13;;;1.90;97.90;;;;;;5018311;28;20022;-66
2024/01/08 11:56:46;;;;;;;8.13;3.25;;;1.60;98.40;;;;;;5017580;28;20028;-66
2024/01/08 11:59:12;;;;;;;7.07;3.20;;;1.40;98.10;;;;;;5017618;28;20033;-66
2024/01/08 12:01:38;;;;;;;7.18;2.97;;;1.50;98.00;;;;;;5017301;28;20026;-67
2024/01/08 12:04:04;;;;;;;7.93;3.45;;;1.50;98.10;;;;;;5017279;28;20076;-67
2024/01/08 12:06:29;;;;;;;5.35;2.30;;;1.90;99.20;;;;;;5017085;28;20101;-66
2024/01/08 12:08:55;;;;;;;7.03;2.72;;;1.80;98.00;;;;;;5017286;28;20030;-66
2024/01/08 12:11:25;;;;;;;7.45;3.00;;;1.80;97.50;;;;;;5016857;28;20029;-66
2024/01/08 12:13:52;;;;;;;8.55;2.70;;;1.80;97.70;;;;;;5017785;28;20025;-67
2024/01/08 12:16:17;;;;;;;7.05;2.83;;;1.50;98.30;;;;;;5016356;28;20021;-67
2024/01/08 12:18:43;;;;;;;6.10;3.13;;;1.80;98.40;;;;;;5017039;28;20075;-66
2024/01/08 12:21:10;;;;;;;6.40;3.03;;;1.30;98.10;;;;;;5016906;28;20036;-67
2024/01/08 12:23:36;;;;;;;6.75;3.28;;;1.50;98.60;;;;;;5016648;28;20048;-67
2024/01/08 12:26:05;;;;;;;7.15;2.95;;;1.50;98.80;;;;;;5017017;28;20025;-66
2024/01/08 12:28:32;;;;;;;12.15;3.03;;;1.20;98.70;;;;;;5017226;28;20052;-66
2024/01/08 12:31:01;;;;;;;7.55;2.67;;;1.30;98.60;;;;;;5017466;28;20022;-66
2024/01/08 12:33:27;;;;;;;9.27;3.03;;;1.70;98.60;;;;;;5016588;28;20029;-66
2024/01/08 12:35:56;;;;;;;9.88;3.70;;;1.80;98.00;;;;;;5017409;28;20017;-66
2024/01/08 12:38:22;;;;;;;7.13;3.08;;;1.40;98.30;;;;;;5033034;28;20018;-66
2024/01/08 12:40:51;;;;;;;6.93;2.95;;;1.30;98.40;;;;;;5016623;28;20029;-66
2024/01/08 12:43:20;;;;;;;8.07;3.38;;;1.60;99.70;;;;;;5016560;28;20054;-66
2024/01/08 12:45:47;;;;;;;8.07;3.35;;;1.70;99.20;;;;;;5017587;28;20062;-66
2024/01/08 12:48:13;;;;;;;8.55;3.65;;;1.70;98.60;;;;;;5017341;28;20105;-66
2024/01/08 12:50:39;;;;;;;7.00;3.55;;;2.00;99.90;;;;;;5017382;28;20111;-66
2024/01/08 12:53:05;;;;;;;8.13;3.08;;;1.90;99.30;;;;;;5017183;28;20025;-66